ADDS TAF Data INFO
IDs: Format: Raw Decoded Include METARs

Data at: 1116 UTC 19 Jan 2018

TAF for:KMRB (Martinsburg/E West V, WV, US) issued at 0843 UTC 19 Jan 2018
Text:KMRB 190843Z 1909/2006 25012KT P6SM FEW250
Forecast period:0900 to 2300 UTC 19 January 2018
Forecast type:FROM: standard forecast or significant change
Winds:from the WSW (250 degrees) at 14 MPH (12 knots; 6.2 m/s)
Visibility:6 or more sm (10+ km)
Ceiling:at least 12,000 feet AGL
Clouds: few clouds at 25000 feet AGL
Text:FM192300 23004KT P6SM FEW250
Forecast period:2300 UTC 19 January 2018 to 0600 UTC 20 January 2018
Forecast type:FROM: standard forecast or significant change
Winds:from the SW (230 degrees) at 5 MPH (4 knots; 2.1 m/s)
Visibility:6 or more sm (10+ km)
Ceiling:at least 12,000 feet AGL
Clouds: few clouds at 25000 feet AGL